Time;durP1;ratioP1;P1;durP2;ratioP2;P2;SDS_P1;SDS_P2;PMS_P1;PMS_P2;Temp;Humidity;BMP_temperature;BMP_pressure;BME280_temperature;BME280_humidity;BME280_pressure;Samples;Min_cycle;Max_cycle;Signal;HPM_P1;HPM_P2
2022/01/19 00:00:14;;;;;;;71.03;27.83;;;;;;;;;;5106819;28;20538;-64
2022/01/19 00:02:40;;;;;;;61.85;26.27;;;;;;;;;;5106512;28;20113;-64
2022/01/19 00:05:07;;;;;;;62.22;27.65;;;;;;;;;;5105337;28;20116;-65
2022/01/19 00:07:33;;;;;;;67.07;27.27;;;;;;;;;;5106443;28;20391;-65
2022/01/19 00:10:08;;;;;;;72.13;28.65;;;;;;;;;;5106643;28;20119;-65
2022/01/19 00:12:35;;;;;;;67.93;29.25;;;;;;;;;;5106287;28;20496;-65
2022/01/19 00:15:01;;;;;;;65.43;28.45;;;;;;;;;;5106890;28;20051;-63
2022/01/19 00:17:27;;;;;;;67.15;28.27;;;;;;;;;;5106891;28;20493;-65
2022/01/19 00:19:53;;;;;;;70.82;27.58;;;;;;;;;;5093349;28;20044;-64
2022/01/19 00:22:19;;;;;;;78.50;30.27;;;;;;;;;;5091421;28;20127;-64
2022/01/19 00:24:45;;;;;;;64.53;28.77;;;;;;;;;;5093751;28;20040;-64
2022/01/19 00:27:11;;;;;;;66.95;28.17;;;;;;;;;;5099863;22;20040;-64
2022/01/19 00:29:38;;;;;;;70.53;27.63;;;;;;;;;;5032872;28;20048;-64
2022/01/19 00:32:04;;;;;;;73.03;29.33;;;;;;;;;;5032031;28;20504;-64
2022/01/19 00:34:30;;;;;;;60.47;26.08;;;;;;;;;;5032285;28;20480;-64
2022/01/19 09:39:12;;;;;;;63.17;36.65;;;;;;;;;;5033704;28;20091;-87
2022/01/19 09:42:08;;;;;;;60.17;36.50;;;;;;;;;;5021063;28;20029;-86
2022/01/19 09:45:04;;;;;;;64.05;37.13;;;;;;;;;;5027396;28;20490;-87
2022/01/19 09:47:30;;;;;;;61.25;37.50;;;;;;;;;;5036289;28;20373;-86
2022/01/19 09:50:00;;;;;;;62.30;37.22;;;;;;;;;;5037115;28;20041;-86
2022/01/19 09:52:46;;;;;;;62.63;36.58;;;;;;;;;;5050799;28;20419;-86
2022/01/19 09:55:12;;;;;;;63.08;38.78;;;;;;;;;;5033642;28;20087;-87
2022/01/19 09:57:38;;;;;;;67.13;37.78;;;;;;;;;;5036774;28;20045;-86
2022/01/19 10:00:04;;;;;;;69.95;37.35;;;;;;;;;;5053218;28;20037;-86
2022/01/19 10:02:30;;;;;;;70.30;40.00;;;;;;;;;;5035244;28;20036;-87
2022/01/19 10:05:04;;;;;;;65.65;38.03;;;;;;;;;;5044706;28;20044;-86
2022/01/19 10:07:31;;;;;;;70.95;40.53;;;;;;;;;;5083948;28;20040;-86
2022/01/19 10:09:58;;;;;;;66.28;38.95;;;;;;;;;;5072993;28;20510;-86
2022/01/19 10:18:19;;;;;;;70.35;38.22;;;;;;;;;;5072579;28;20040;-86
2022/01/19 10:20:47;;;;;;;72.65;39.13;;;;;;;;;;5072633;28;20081;-87
2022/01/19 10:23:33;;;;;;;73.72;42.13;;;;;;;;;;5072699;28;20484;-86
2022/01/19 10:26:03;;;;;;;71.43;39.63;;;;;;;;;;5073579;28;20047;-86
2022/01/19 10:28:29;;;;;;;72.85;41.72;;;;;;;;;;5073945;28;20105;-87
2022/01/19 10:30:56;;;;;;;77.13;41.22;;;;;;;;;;5074188;28;20671;-86
2022/01/19 10:33:22;;;;;;;75.70;41.25;;;;;;;;;;5073173;28;20048;-86
2022/01/19 10:35:49;;;;;;;79.68;41.67;;;;;;;;;;5074253;28;20040;-85
2022/01/19 10:38:27;;;;;;;83.95;43.63;;;;;;;;;;5075357;28;20036;-86
2022/01/19 10:41:07;;;;;;;80.22;43.22;;;;;;;;;;5086639;28;20103;-84
2022/01/19 10:43:41;;;;;;;87.60;44.40;;;;;;;;;;5097486;28;20035;-84
2022/01/19 10:46:16;;;;;;;83.82;43.15;;;;;;;;;;5088496;28;20037;-85
2022/01/19 10:48:43;;;;;;;90.22;45.63;;;;;;;;;;5041007;28;20496;-86
2022/01/19 10:51:20;;;;;;;89.25;45.70;;;;;;;;;;5046262;28;20048;-85
2022/01/19 10:53:47;;;;;;;87.63;45.30;;;;;;;;;;5087908;28;20070;-86
2022/01/19 10:56:27;;;;;;;88.82;43.08;;;;;;;;;;5074285;28;20040;-86
2022/01/19 10:59:04;;;;;;;84.80;43.65;;;;;;;;;;5074934;28;20396;-86
2022/01/19 11:01:38;;;;;;;92.70;46.30;;;;;;;;;;5077406;28;20045;-85
2022/01/19 11:04:04;;;;;;;;;;;;;;;;;;5074934;28;20041;-86
2022/01/19 11:06:30;;;;;;;105.22;48.25;;;;;;;;;;5074676;28;20431;-86
2022/01/19 11:08:56;;;;;;;91.07;45.40;;;;;;;;;;5075031;28;20445;-86
2022/01/19 11:11:22;;;;;;;99.25;47.10;;;;;;;;;;5074667;28;20097;-86
2022/01/19 11:13:55;;;;;;;101.63;47.80;;;;;;;;;;5075375;28;20036;-86
2022/01/19 11:16:37;;;;;;;;;;;;;;;;;;;;;
2022/01/19 11:20:03;;;;;;;98.10;46.63;;;;;;;;;;5019356;28;20053;-86
2022/01/19 11:22:56;;;;;;;88.43;41.13;;;;;;;;;;4986469;28;20079;-86
2022/01/19 11:25:37;;;;;;;90.35;42.08;;;;;;;;;;5058244;28;20056;-85
2022/01/19 11:28:05;;;;;;;100.47;46.67;;;;;;;;;;5054748;28;20048;-86
2022/01/19 11:30:33;;;;;;;97.43;46.17;;;;;;;;;;5056460;28;20037;-86
2022/01/19 11:33:14;;;;;;;94.50;45.90;;;;;;;;;;5055490;28;20063;-86
2022/01/19 11:35:41;;;;;;;92.68;46.65;;;;;;;;;;5056764;28;20044;-85
2022/01/19 11:38:26;;;;;;;99.35;47.60;;;;;;;;;;5056504;28;20041;-85
2022/01/19 11:40:55;;;;;;;104.55;48.25;;;;;;;;;;5055338;28;20053;-86
2022/01/19 11:43:28;;;;;;;98.07;49.70;;;;;;;;;;5055126;28;20037;-85
2022/01/19 11:45:55;;;;;;;96.28;47.70;;;;;;;;;;5055189;28;20071;-86
2022/01/19 11:48:22;;;;;;;108.22;50.28;;;;;;;;;;5055006;28;20408;-86
2022/01/19 11:50:49;;;;;;;112.70;52.10;;;;;;;;;;5054827;28;20041;-87
2022/01/19 11:53:16;;;;;;;105.18;50.63;;;;;;;;;;5055868;28;20066;-86
2022/01/19 11:56:00;;;;;;;91.45;45.67;;;;;;;;;;5056745;28;20029;-86
2022/01/19 11:58:26;;;;;;;99.93;47.40;;;;;;;;;;5073142;28;20037;-86
2022/01/19 12:00:54;;;;;;;104.05;50.35;;;;;;;;;;5073363;28;20057;-85
2022/01/19 12:03:21;;;;;;;105.05;49.97;;;;;;;;;;5057977;28;20036;-86
2022/01/19 12:05:50;;;;;;;99.40;48.83;;;;;;;;;;5055425;28;20045;-85
2022/01/19 12:08:25;;;;;;;116.07;51.85;;;;;;;;;;5054772;28;20057;-86
2022/01/19 12:10:55;;;;;;;107.30;50.65;;;;;;;;;;5055634;28;20060;-85
2022/01/19 12:16:20;;;;;;;107.88;51.13;;;;;;;;;;5059925;28;20052;-85
2022/01/19 12:18:52;;;;;;;97.70;48.17;;;;;;;;;;5058287;28;20056;-85
2022/01/19 12:21:21;;;;;;;103.45;48.83;;;;;;;;;;5062012;28;20063;-85
2022/01/19 12:23:49;;;;;;;101.18;48.72;;;;;;;;;;5069683;28;20032;-84
2022/01/19 12:26:15;;;;;;;106.82;48.60;;;;;;;;;;5076975;28;20025;-83
2022/01/19 12:28:46;;;;;;;93.03;45.33;;;;;;;;;;5067032;28;20044;-85
2022/01/19 12:31:31;;;;;;;95.25;47.97;;;;;;;;;;5061572;28;20041;-86
2022/01/19 12:34:07;;;;;;;91.50;46.70;;;;;;;;;;5072408;28;20060;-86
2022/01/19 12:36:42;;;;;;;95.47;48.30;;;;;;;;;;5089708;28;20092;-84
2022/01/19 12:39:28;;;;;;;91.85;48.00;;;;;;;;;;5071461;28;20055;-86
2022/01/19 12:42:25;;;;;;;93.75;47.38;;;;;;;;;;5061018;28;20056;-86
2022/01/19 12:44:54;;;;;;;92.13;47.25;;;;;;;;;;5050883;28;20407;-87
2022/01/19 12:47:29;;;;;;;91.68;44.42;;;;;;;;;;5059040;28;20085;-86
2022/01/19 12:50:19;;;;;;;83.22;45.20;;;;;;;;;;5056856;28;20041;-87
2022/01/19 12:52:47;;;;;;;92.10;46.63;;;;;;;;;;5048970;28;20067;-86
2022/01/19 12:55:18;;;;;;;80.63;44.58;;;;;;;;;;5062247;28;20102;-86
2022/01/19 12:57:44;;;;;;;95.95;48.42;;;;;;;;;;5078889;28;20072;-86
2022/01/19 13:00:18;;;;;;;94.63;48.30;;;;;;;;;;5079066;28;20614;-87
2022/01/19 13:02:44;;;;;;;95.40;52.22;;;;;;;;;;5070647;28;20049;-86
2022/01/19 13:05:14;;;;;;;94.05;47.47;;;;;;;;;;5040049;28;20041;-86
2022/01/19 13:07:41;;;;;;;92.45;47.13;;;;;;;;;;5040269;28;20436;-86
2022/01/19 13:10:17;;;;;;;85.93;45.80;;;;;;;;;;5041957;28;20039;-86
2022/01/19 13:12:50;;;;;;;89.38;45.55;;;;;;;;;;5056551;28;20041;-86
2022/01/19 13:15:19;;;;;;;89.35;46.10;;;;;;;;;;5055860;28;20556;-86
2022/01/19 13:17:52;;;;;;;80.38;41.30;;;;;;;;;;5056359;28;20103;-86
2022/01/19 13:20:26;;;;;;;94.17;46.50;;;;;;;;;;5039789;28;20559;-87
2022/01/19 13:22:52;;;;;;;;;;;;;;;;;;5038806;28;20036;-86
2022/01/19 13:25:22;;;;;;;80.70;42.40;;;;;;;;;;5043526;28;19916;-86
2022/01/19 13:27:48;;;;;;;80.82;41.65;;;;;;;;;;5040845;28;20044;-86
2022/01/19 13:30:14;;;;;;;93.78;47.92;;;;;;;;;;5061272;28;20033;-86
2022/01/19 13:32:40;;;;;;;93.47;46.17;;;;;;;;;;5060013;28;20045;-87
2022/01/19 13:35:08;;;;;;;78.88;42.42;;;;;;;;;;5074292;28;20049;-86
2022/01/19 13:37:39;;;;;;;82.95;42.25;;;;;;;;;;5063131;28;20040;-86
2022/01/19 13:40:05;;;;;;;71.93;35.50;;;;;;;;;;5067299;28;20086;-86
2022/01/19 13:42:37;;;;;;;84.55;43.60;;;;;;;;;;5075605;28;20044;-86
2022/01/19 13:45:09;;;;;;;90.18;47.72;;;;;;;;;;5075982;28;20080;-87
2022/01/19 13:47:53;;;;;;;85.43;43.40;;;;;;;;;;5093904;28;20044;-87
2022/01/19 13:50:19;;;;;;;90.30;47.55;;;;;;;;;;5076246;28;20483;-87
2022/01/19 13:52:45;;;;;;;94.00;51.13;;;;;;;;;;5073924;28;20043;-85
2022/01/19 13:55:19;;;;;;;86.50;45.22;;;;;;;;;;5074292;28;20036;-86
2022/01/19 13:57:45;;;;;;;80.82;43.08;;;;;;;;;;5076085;28;20048;-86
2022/01/19 14:00:13;;;;;;;82.88;45.58;;;;;;;;;;5075964;28;20037;-85
2022/01/19 14:02:39;;;;;;;78.68;43.08;;;;;;;;;;5072570;28;20047;-86
2022/01/19 14:05:05;;;;;;;81.65;44.30;;;;;;;;;;5073848;28;20090;-86
2022/01/19 14:07:31;;;;;;;81.68;45.75;;;;;;;;;;5073462;28;20495;-87
2022/01/19 14:10:07;;;;;;;83.30;43.80;;;;;;;;;;5063711;28;20495;-86
2022/01/19 14:12:33;;;;;;;78.25;42.35;;;;;;;;;;5081336;28;20048;-87
2022/01/19 14:15:01;;;;;;;82.05;41.42;;;;;;;;;;5064019;28;20411;-85
2022/01/19 14:17:31;;;;;;;78.03;41.78;;;;;;;;;;5073647;28;20488;-85
2022/01/19 14:19:58;;;;;;;75.88;42.17;;;;;;;;;;5072268;28;20401;-86
2022/01/19 14:22:26;;;;;;;78.80;42.25;;;;;;;;;;5072871;28;20549;-86
2022/01/19 14:24:54;;;;;;;78.60;40.15;;;;;;;;;;5072891;28;20090;-86
2022/01/19 14:27:23;;;;;;;82.22;44.78;;;;;;;;;;5045319;28;20036;-85
2022/01/19 14:29:55;;;;;;;74.70;39.80;;;;;;;;;;5064754;28;20047;-85
2022/01/19 14:32:32;;;;;;;78.85;40.97;;;;;;;;;;5072764;28;20373;-85
2022/01/19 14:34:58;;;;;;;74.85;41.50;;;;;;;;;;5077224;28;20123;-85
2022/01/19 14:37:24;;;;;;;71.07;39.38;;;;;;;;;;5097187;28;20028;-85
2022/01/19 14:39:52;;;;;;;76.97;43.05;;;;;;;;;;5097598;28;20104;-87
2022/01/19 14:42:21;;;;;;;78.25;41.80;;;;;;;;;;5086239;28;20128;-86
2022/01/19 14:44:59;;;;;;;76.97;41.05;;;;;;;;;;5071551;28;20127;-86
2022/01/19 14:47:36;;;;;;;81.05;41.10;;;;;;;;;;5071642;28;20416;-86
2022/01/19 14:50:21;;;;;;;78.90;42.97;;;;;;;;;;5071080;28;20094;-86
2022/01/19 14:52:51;;;;;;;84.85;43.53;;;;;;;;;;5072074;28;20045;-85
2022/01/19 14:55:37;;;;;;;77.45;43.03;;;;;;;;;;5072292;28;20037;-86
2022/01/19 14:58:05;;;;;;;86.10;42.88;;;;;;;;;;5074875;28;20059;-85
2022/01/19 15:00:31;;;;;;;85.40;44.03;;;;;;;;;;5075438;28;20032;-85
2022/01/19 15:03:00;;;;;;;85.32;43.58;;;;;;;;;;5074019;28;20046;-85
2022/01/19 15:05:27;;;;;;;81.40;43.92;;;;;;;;;;5072708;28;20054;-86
2022/01/19 15:07:53;;;;;;;77.30;42.78;;;;;;;;;;5071832;28;20037;-85
2022/01/19 15:10:20;;;;;;;77.43;37.72;;;;;;;;;;5043717;28;20531;-85
2022/01/19 15:12:51;;;;;;;82.45;41.35;;;;;;;;;;5085718;28;20612;-85
2022/01/19 15:15:17;;;;;;;74.78;38.97;;;;;;;;;;5072000;28;20162;-86
2022/01/19 15:17:43;;;;;;;85.43;46.08;;;;;;;;;;5072582;28;20048;-86
2022/01/19 15:20:35;;;;;;;92.40;49.22;;;;;;;;;;5072536;28;20052;-86
2022/01/19 15:41:19;;;;;;;68.88;38.38;;;;;;;;;;4908753;29;20116;-85
2022/01/19 15:44:11;;;;;;;123.38;60.33;;;;;;;;;;4959005;28;20049;-85
2022/01/19 15:46:50;;;;;;;;;;;;;;;;;;;;;
2022/01/19 15:49:19;;;;;;;81.80;40.45;;;;;;;;;;5075502;28;20047;-85
2022/01/19 15:55:08;;;;;;;76.40;38.83;;;;;;;;;;5058528;22;20106;-64
2022/01/19 15:57:34;;;;;;;73.20;38.88;;;;;;;;;;5041603;28;20652;-63
2022/01/19 16:00:00;;;;;;;82.65;47.92;;;;;;;;;;5050879;28;20047;-64
2022/01/19 16:02:27;;;;;;;79.13;38.75;;;;;;;;;;5045272;28;20054;-64
2022/01/19 16:04:53;;;;;;;79.28;39.80;;;;;;;;;;5035905;28;20074;-65
2022/01/19 16:07:19;;;;;;;79.53;40.50;;;;;;;;;;5046519;28;20081;-64
2022/01/19 16:09:45;;;;;;;68.70;35.13;;;;;;;;;;5055236;28;20068;-65
2022/01/19 16:12:11;;;;;;;64.20;34.13;;;;;;;;;;5057535;28;20040;-65
2022/01/19 16:14:37;;;;;;;75.72;39.28;;;;;;;;;;5054618;28;20083;-64
2022/01/19 16:17:03;;;;;;;74.70;38.55;;;;;;;;;;5051293;28;20094;-65
2022/01/19 16:19:30;;;;;;;72.32;37.30;;;;;;;;;;5048136;28;20041;-65
2022/01/19 16:21:56;;;;;;;72.75;38.53;;;;;;;;;;5050917;28;20038;-65
2022/01/19 16:27:15;;;;;;;68.63;35.23;;;;;;;;;;5045586;28;20052;-66
2022/01/19 16:29:41;;;;;;;65.70;35.97;;;;;;;;;;5048545;28;20486;-64
2022/01/19 16:32:08;;;;;;;68.72;37.20;;;;;;;;;;5060751;28;20036;-65
2022/01/19 16:34:34;;;;;;;71.05;36.63;;;;;;;;;;5066456;28;20500;-65
2022/01/19 16:37:02;;;;;;;72.93;37.72;;;;;;;;;;5053379;28;20033;-65
2022/01/19 16:39:28;;;;;;;72.32;37.85;;;;;;;;;;5053572;28;20463;-65
2022/01/19 16:41:59;;;;;;;63.78;36.20;;;;;;;;;;5049537;28;20399;-66
2022/01/19 16:44:25;;;;;;;68.38;37.00;;;;;;;;;;5048983;28;20675;-64
2022/01/19 16:46:52;;;;;;;74.57;41.00;;;;;;;;;;5048459;28;20117;-65
2022/01/19 16:49:21;;;;;;;67.50;35.53;;;;;;;;;;5041426;28;20041;-65
2022/01/19 16:51:47;;;;;;;64.40;35.22;;;;;;;;;;5058826;28;20044;-65
2022/01/19 16:54:14;;;;;;;68.63;33.45;;;;;;;;;;5055115;28;20045;-64
2022/01/19 16:56:40;;;;;;;60.90;31.63;;;;;;;;;;5044447;28;20052;-65
2022/01/19 16:59:06;;;;;;;54.10;29.83;;;;;;;;;;5049996;28;20032;-66
2022/01/19 17:01:33;;;;;;;61.92;30.92;;;;;;;;;;5049165;28;20581;-66
2022/01/19 17:04:01;;;;;;;56.95;29.67;;;;;;;;;;5049604;28;20044;-66
2022/01/19 17:06:27;;;;;;;52.42;27.40;;;;;;;;;;5044915;28;20112;-65
2022/01/19 17:08:53;;;;;;;55.05;27.52;;;;;;;;;;5048030;28;20119;-65
2022/01/19 17:11:20;;;;;;;53.85;26.33;;;;;;;;;;5044776;28;20041;-65
2022/01/19 17:14:01;;;;;;;52.70;24.92;;;;;;;;;;5044686;28;20124;-66
2022/01/19 17:16:40;;;;;;;50.30;26.60;;;;;;;;;;5042091;28;20107;-66
2022/01/19 17:19:09;;;;;;;50.55;23.55;;;;;;;;;;5039380;28;20036;-66
2022/01/19 17:21:35;;;;;;;51.38;23.13;;;;;;;;;;5047444;28;20490;-66
2022/01/19 17:24:01;;;;;;;45.85;21.35;;;;;;;;;;5044395;28;20041;-66
2022/01/19 17:26:27;;;;;;;40.60;20.92;;;;;;;;;;5045961;28;20041;-65
2022/01/19 17:28:53;;;;;;;38.75;19.77;;;;;;;;;;5043574;28;20120;-65
2022/01/19 17:31:20;;;;;;;45.72;18.30;;;;;;;;;;5047301;28;20041;-65
2022/01/19 17:33:46;;;;;;;34.97;16.23;;;;;;;;;;5048420;28;20033;-63
2022/01/19 17:36:21;;;;;;;36.83;17.00;;;;;;;;;;5049996;28;20127;-66
2022/01/19 17:38:47;;;;;;;29.38;14.55;;;;;;;;;;5046352;28;20045;-66
2022/01/19 17:41:13;;;;;;;32.85;11.95;;;;;;;;;;5050979;28;20124;-66
2022/01/19 17:43:39;;;;;;;30.10;11.35;;;;;;;;;;5049674;28;20049;-64
2022/01/19 17:46:18;;;;;;;37.75;11.93;;;;;;;;;;5051941;28;20490;-66
2022/01/19 17:49:04;;;;;;;31.65;9.48;;;;;;;;;;5052067;28;20094;-67
2022/01/19 17:53:59;;;;;;;29.17;7.78;;;;;;;;;;5049827;28;20033;-65
2022/01/19 17:56:25;;;;;;;21.75;6.07;;;;;;;;;;5049887;28;20041;-66
2022/01/19 17:58:51;;;;;;;23.88;6.15;;;;;;;;;;5051193;28;20047;-65
2022/01/19 18:01:23;;;;;;;20.65;5.97;;;;;;;;;;5050624;28;20123;-66
2022/01/19 18:03:49;;;;;;;25.05;4.72;;;;;;;;;;5050462;28;20041;-66
2022/01/19 18:06:16;;;;;;;22.90;4.88;;;;;;;;;;5050316;28;20033;-66
2022/01/19 18:08:42;;;;;;;18.55;4.53;;;;;;;;;;5046366;28;20130;-64
2022/01/19 18:11:09;;;;;;;13.50;3.90;;;;;;;;;;5054621;28;20048;-64
2022/01/19 18:13:36;;;;;;;22.15;3.90;;;;;;;;;;5043860;28;20045;-66
2022/01/19 18:16:02;;;;;;;16.52;3.90;;;;;;;;;;5069586;28;20466;-66
2022/01/19 18:18:28;;;;;;;25.50;4.47;;;;;;;;;;5055739;28;20041;-65
2022/01/19 18:20:54;;;;;;;22.40;5.00;;;;;;;;;;5044006;28;20512;-64
2022/01/19 18:23:20;;;;;;;21.40;5.85;;;;;;;;;;5063641;28;20207;-65
2022/01/19 18:25:46;;;;;;;26.80;5.13;;;;;;;;;;5071139;28;20060;-64
2022/01/19 18:28:12;;;;;;;28.52;5.93;;;;;;;;;;5071059;28;20039;-65
2022/01/19 18:30:38;;;;;;;22.35;4.80;;;;;;;;;;5071176;28;20044;-64
2022/01/19 18:33:05;;;;;;;25.95;5.38;;;;;;;;;;5071119;28;20089;-65
2022/01/19 18:35:31;;;;;;;26.40;5.50;;;;;;;;;;5070031;28;20493;-65
2022/01/19 18:37:58;;;;;;;23.55;5.38;;;;;;;;;;5071342;28;20405;-65
2022/01/19 18:40:29;;;;;;;30.45;6.65;;;;;;;;;;5060460;28;20048;-67
2022/01/19 18:42:57;;;;;;;29.02;5.65;;;;;;;;;;5037213;28;20086;-63
2022/01/19 18:45:45;;;;;;;35.10;6.22;;;;;;;;;;5049474;28;20076;-65
2022/01/19 18:48:12;;;;;;;24.65;5.07;;;;;;;;;;5057392;28;20040;-65
2022/01/19 18:50:38;;;;;;;31.95;6.53;;;;;;;;;;5050892;28;20047;-66
2022/01/19 18:53:04;;;;;;;25.67;5.20;;;;;;;;;;5050046;28;20110;-65
2022/01/19 18:55:30;;;;;;;27.90;5.90;;;;;;;;;;5050485;28;20045;-65
2022/01/19 18:57:56;;;;;;;32.72;5.07;;;;;;;;;;5051206;28;20045;-66
2022/01/19 19:00:23;;;;;;;29.33;5.60;;;;;;;;;;5045638;28;20047;-68
2022/01/19 19:02:50;;;;;;;35.08;5.45;;;;;;;;;;5060537;28;20047;-67
2022/01/19 19:05:17;;;;;;;33.75;8.23;;;;;;;;;;5068768;28;20041;-68
2022/01/19 19:07:44;;;;;;;33.47;5.75;;;;;;;;;;5069697;22;20101;-65
2022/01/19 19:12:37;;;;;;;30.67;6.07;;;;;;;;;;5085756;28;20047;-65
2022/01/19 19:15:04;;;;;;;29.73;5.63;;;;;;;;;;5084022;28;20047;-66
2022/01/19 19:17:30;;;;;;;26.05;6.05;;;;;;;;;;5082828;28;20044;-66
2022/01/19 19:19:57;;;;;;;34.00;6.00;;;;;;;;;;5084797;28;20033;-64
2022/01/19 19:22:23;;;;;;;37.78;6.00;;;;;;;;;;5079916;28;20630;-65
2022/01/19 19:24:50;;;;;;;32.35;5.65;;;;;;;;;;5081251;28;20045;-64
2022/01/19 19:27:17;;;;;;;28.92;5.88;;;;;;;;;;5089273;28;20035;-65
2022/01/19 19:29:43;;;;;;;29.65;5.97;;;;;;;;;;5086216;28;20557;-65
2022/01/19 19:32:09;;;;;;;30.70;6.10;;;;;;;;;;5083691;28;20089;-66
2022/01/19 19:34:35;;;;;;;33.95;6.30;;;;;;;;;;5082162;28;20040;-66
2022/01/19 19:37:02;;;;;;;27.17;5.07;;;;;;;;;;5090099;28;20034;-66
2022/01/19 19:39:28;;;;;;;28.75;5.25;;;;;;;;;;5090410;28;20047;-66
2022/01/19 19:41:58;;;;;;;34.67;5.32;;;;;;;;;;5085420;28;20085;-66
2022/01/19 19:44:24;;;;;;;31.52;6.25;;;;;;;;;;5088247;28;20037;-65
2022/01/19 19:46:50;;;;;;;26.05;5.40;;;;;;;;;;5088639;28;20465;-66
2022/01/19 19:49:16;;;;;;;26.27;5.25;;;;;;;;;;5085368;28;20127;-65
2022/01/19 19:51:44;;;;;;;25.08;5.38;;;;;;;;;;5089858;28;20570;-65
2022/01/19 19:54:10;;;;;;;23.27;4.30;;;;;;;;;;5080496;28;20036;-65
2022/01/19 19:56:37;;;;;;;20.63;4.88;;;;;;;;;;5086998;28;20447;-65
2022/01/19 19:59:06;;;;;;;23.00;4.32;;;;;;;;;;5079272;22;20097;-65
2022/01/19 20:01:32;;;;;;;20.88;4.30;;;;;;;;;;5076628;28;20040;-65
2022/01/19 20:03:58;;;;;;;19.70;3.55;;;;;;;;;;5078457;28;20396;-64
2022/01/19 20:06:24;;;;;;;22.48;4.28;;;;;;;;;;5074987;28;20104;-65
2022/01/19 20:08:52;;;;;;;22.17;4.50;;;;;;;;;;5092081;22;20549;-65
2022/01/19 20:11:20;;;;;;;21.73;3.40;;;;;;;;;;5071175;28;20040;-65
2022/01/19 20:13:48;;;;;;;18.27;3.45;;;;;;;;;;5066316;28;20043;-65
2022/01/19 20:16:16;;;;;;;20.52;3.58;;;;;;;;;;5064495;28;20083;-65
2022/01/19 20:18:44;;;;;;;14.23;4.03;;;;;;;;;;5061258;28;20045;-65
2022/01/19 20:21:11;;;;;;;23.45;3.80;;;;;;;;;;5063514;28;20048;-65
2022/01/19 20:23:37;;;;;;;24.27;4.28;;;;;;;;;;5072560;28;20098;-65
2022/01/19 20:26:03;;;;;;;15.57;3.83;;;;;;;;;;5072408;28;20075;-65
2022/01/19 20:28:29;;;;;;;17.88;3.72;;;;;;;;;;5063784;28;20037;-66
2022/01/19 20:30:55;;;;;;;17.05;3.50;;;;;;;;;;5069523;28;20550;-66
2022/01/19 20:33:21;;;;;;;24.13;4.03;;;;;;;;;;5043276;28;20488;-65
2022/01/19 20:35:49;;;;;;;18.30;4.40;;;;;;;;;;5057593;28;20123;-66
2022/01/19 20:38:16;;;;;;;15.63;3.65;;;;;;;;;;5073270;28;20047;-66
2022/01/19 20:40:42;;;;;;;13.95;3.80;;;;;;;;;;5072131;28;20475;-65
2022/01/19 20:43:09;;;;;;;19.73;3.90;;;;;;;;;;5083237;28;20044;-67
2022/01/19 20:45:35;;;;;;;19.10;4.82;;;;;;;;;;5093519;28;20044;-65
2022/01/19 20:48:25;;;;;;;16.70;3.65;;;;;;;;;;5093484;28;20044;-66
2022/01/19 20:51:13;;;;;;;19.15;4.40;;;;;;;;;;5084193;28;20058;-66
2022/01/19 20:53:39;;;;;;;17.00;4.03;;;;;;;;;;5059117;28;20045;-66
2022/01/19 20:56:05;;;;;;;19.83;5.07;;;;;;;;;;5073055;28;20040;-66
2022/01/19 20:58:31;;;;;;;18.27;3.55;;;;;;;;;;5071852;28;20060;-65
2022/01/19 21:00:57;;;;;;;19.55;3.97;;;;;;;;;;5071705;28;20040;-65
2022/01/19 21:03:25;;;;;;;15.32;4.03;;;;;;;;;;5068252;28;20036;-66
2022/01/19 21:05:51;;;;;;;21.05;3.70;;;;;;;;;;5080662;28;20127;-65
2022/01/19 21:08:17;;;;;;;17.92;3.60;;;;;;;;;;5072574;28;20477;-64
2022/01/19 21:10:43;;;;;;;14.73;3.75;;;;;;;;;;5072709;28;20128;-66
2022/01/19 21:13:09;;;;;;;25.77;3.67;;;;;;;;;;5071341;28;20040;-66
2022/01/19 21:15:35;;;;;;;17.42;3.78;;;;;;;;;;5078323;28;20036;-67
2022/01/19 21:18:01;;;;;;;18.05;3.47;;;;;;;;;;5092627;28;20079;-65
2022/01/19 21:20:28;;;;;;;20.52;3.75;;;;;;;;;;5092611;28;20054;-65
2022/01/19 21:22:55;;;;;;;25.38;3.85;;;;;;;;;;5074129;28;20472;-64
2022/01/19 21:25:21;;;;;;;23.83;3.58;;;;;;;;;;5091403;28;20044;-66
2022/01/19 21:27:48;;;;;;;17.52;4.20;;;;;;;;;;5092624;28;20055;-65
2022/01/19 21:30:16;;;;;;;19.05;5.03;;;;;;;;;;5091054;28;20048;-65
2022/01/19 21:32:43;;;;;;;17.90;4.28;;;;;;;;;;5091773;28;20085;-64
2022/01/19 21:35:09;;;;;;;17.95;4.20;;;;;;;;;;5091548;28;20036;-66
2022/01/19 21:37:35;;;;;;;19.45;3.35;;;;;;;;;;5092444;28;20584;-65
2022/01/19 21:40:01;;;;;;;21.38;3.75;;;;;;;;;;5092326;28;20079;-65
2022/01/19 21:42:27;;;;;;;20.33;4.20;;;;;;;;;;5091923;28;20048;-65
2022/01/19 21:44:54;;;;;;;23.73;5.00;;;;;;;;;;5092123;28;20043;-65
2022/01/19 21:47:20;;;;;;;20.10;3.75;;;;;;;;;;5089972;28;20040;-66
2022/01/19 21:49:46;;;;;;;19.67;5.03;;;;;;;;;;5092417;28;20040;-66
2022/01/19 21:52:14;;;;;;;18.25;3.55;;;;;;;;;;5073886;28;20074;-66
2022/01/19 21:54:40;;;;;;;15.52;3.90;;;;;;;;;;5091020;28;20093;-65
2022/01/19 21:57:07;;;;;;;17.65;3.67;;;;;;;;;;5092192;28;20040;-63
2022/01/19 21:59:33;;;;;;;21.88;4.68;;;;;;;;;;5091953;28;20043;-64
2022/01/19 22:01:59;;;;;;;20.23;3.92;;;;;;;;;;5091494;28;20044;-65
2022/01/19 22:04:25;;;;;;;23.17;4.22;;;;;;;;;;5073952;28;20105;-66
2022/01/19 22:06:51;;;;;;;22.20;5.32;;;;;;;;;;5090440;28;20119;-65
2022/01/19 22:09:22;;;;;;;22.90;4.32;;;;;;;;;;5091991;28;20044;-65
2022/01/19 22:11:55;;;;;;;29.65;4.70;;;;;;;;;;5091404;28;20083;-66
2022/01/19 22:14:21;;;;;;;16.37;3.40;;;;;;;;;;5083376;28;20042;-65
2022/01/19 22:16:47;;;;;;;27.85;4.47;;;;;;;;;;5077783;28;20040;-65
2022/01/19 22:19:14;;;;;;;18.92;4.65;;;;;;;;;;5090318;28;20043;-65
2022/01/19 22:21:45;;;;;;;24.60;4.60;;;;;;;;;;5091189;28;20400;-66
2022/01/19 22:24:13;;;;;;;17.08;3.90;;;;;;;;;;5090353;28;20147;-65
2022/01/19 22:26:39;;;;;;;19.48;5.50;;;;;;;;;;5073393;28;20751;-65
2022/01/19 22:29:07;;;;;;;23.05;4.43;;;;;;;;;;5071669;28;20131;-65
2022/01/19 22:31:33;;;;;;;18.60;4.47;;;;;;;;;;5071318;28;20087;-66
2022/01/19 22:33:59;;;;;;;23.15;4.78;;;;;;;;;;5070963;28;20219;-65
2022/01/19 22:36:25;;;;;;;20.35;3.47;;;;;;;;;;5070797;28;20044;-65
2022/01/19 22:38:51;;;;;;;23.30;4.50;;;;;;;;;;5071155;28;20532;-66
2022/01/19 22:41:17;;;;;;;20.85;4.40;;;;;;;;;;5068988;28;20138;-65
2022/01/19 22:43:43;;;;;;;21.05;4.55;;;;;;;;;;5068415;28;20057;-66
2022/01/19 22:46:13;;;;;;;22.08;4.47;;;;;;;;;;5058272;28;20036;-66
2022/01/19 22:48:39;;;;;;;23.42;4.63;;;;;;;;;;5063873;28;20152;-65
2022/01/19 22:51:09;;;;;;;17.33;3.97;;;;;;;;;;5062965;28;20122;-65
2022/01/19 22:53:35;;;;;;;20.02;3.40;;;;;;;;;;5062118;28;20036;-66
2022/01/19 22:56:01;;;;;;;13.90;3.00;;;;;;;;;;5061898;28;20025;-65
2022/01/19 22:58:27;;;;;;;16.05;3.15;;;;;;;;;;5061756;28;20087;-66
2022/01/19 23:00:53;;;;;;;14.43;3.00;;;;;;;;;;5060955;28;20556;-66
2022/01/19 23:03:19;;;;;;;12.63;3.30;;;;;;;;;;5053348;28;20120;-65
2022/01/19 23:05:45;;;;;;;15.02;3.13;;;;;;;;;;5059151;28;20043;-65
2022/01/19 23:08:12;;;;;;;13.25;3.20;;;;;;;;;;5060701;28;20107;-66
2022/01/19 23:10:39;;;;;;;22.02;3.47;;;;;;;;;;5066603;28;20131;-65
2022/01/19 23:13:05;;;;;;;12.23;3.63;;;;;;;;;;5060252;28;20136;-65
2022/01/19 23:15:31;;;;;;;13.32;3.45;;;;;;;;;;5063473;28;20126;-65
2022/01/19 23:17:57;;;;;;;15.98;3.05;;;;;;;;;;5056521;28;20477;-66
2022/01/19 23:20:24;;;;;;;22.25;3.92;;;;;;;;;;5063246;28;20079;-66
2022/01/19 23:22:50;;;;;;;17.15;3.58;;;;;;;;;;5069503;28;20036;-66
2022/01/19 23:25:16;;;;;;;12.38;3.20;;;;;;;;;;5070004;28;20387;-65
2022/01/19 23:27:43;;;;;;;16.15;3.50;;;;;;;;;;5070173;28;20041;-65
2022/01/19 23:30:10;;;;;;;15.88;2.72;;;;;;;;;;5070029;28;20139;-66
2022/01/19 23:32:47;;;;;;;16.20;3.22;;;;;;;;;;5068215;28;20041;-66
2022/01/19 23:35:14;;;;;;;19.30;3.38;;;;;;;;;;5069614;28;20103;-66
2022/01/19 23:48:25;;;;;;;16.23;3.58;;;;;;;;;;5069941;28;20049;-66
2022/01/19 23:50:51;;;;;;;20.40;4.10;;;;;;;;;;5068869;28;20046;-65
2022/01/19 23:53:18;;;;;;;17.30;4.40;;;;;;;;;;5048698;28;20037;-65
2022/01/19 23:55:44;;;;;;;15.50;3.17;;;;;;;;;;5048385;28;20569;-65
2022/01/19 23:58:24;;;;;;;14.23;3.10;;;;;;;;;;5049386;28;20056;-66
